sensor_id;sensor_type;location;lat;lon;timestamp;pressure;altitude;pressure_sealevel;temperature;humidity
44198;BME280;30157;55.512;37.764;2022-10-10T00:00:03;100226.44;;;10.30;81.52
44198;BME280;30157;55.512;37.764;2022-10-10T00:02:30;100229.91;;;10.29;81.71
44198;BME280;30157;55.512;37.764;2022-10-10T00:04:56;100209.13;;;10.18;81.78
44198;BME280;30157;55.512;37.764;2022-10-10T00:07:21;100214.34;;;10.24;81.41
44198;BME280;30157;55.512;37.764;2022-10-10T00:09:47;100240.28;;;10.31;81.21
44198;BME280;30157;55.512;37.764;2022-10-10T00:12:13;100234.19;;;10.22;81.49
44198;BME280;30157;55.512;37.764;2022-10-10T00:14:38;100242.84;;;10.23;81.38
44198;BME280;30157;55.512;37.764;2022-10-10T00:17:04;100239.38;;;10.21;81.36
44198;BME280;30157;55.512;37.764;2022-10-10T00:19:30;100226.38;;;10.08;81.37
44198;BME280;30157;55.512;37.764;2022-10-10T00:21:55;100216.81;;;9.95;81.28
44198;BME280;30157;55.512;37.764;2022-10-10T00:24:21;100242.78;;;10.04;81.38
44198;BME280;30157;55.512;37.764;2022-10-10T00:26:47;100238.41;;;9.91;81.13
44198;BME280;30157;55.512;37.764;2022-10-10T00:29:15;100199.41;;;9.68;81.48
44198;BME280;30157;55.512;37.764;2022-10-10T00:31:41;100250.53;;;9.97;81.44
44198;BME280;30157;55.512;37.764;2022-10-10T00:34:06;100224.47;;;9.70;80.88
44198;BME280;30157;55.512;37.764;2022-10-10T00:36:32;100254.81;;;9.90;81.18
44198;BME280;30157;55.512;37.764;2022-10-10T00:38:57;100272.97;;;9.96;81.40
44198;BME280;30157;55.512;37.764;2022-10-10T00:41:23;100271.28;;;9.97;81.26
44198;BME280;30157;55.512;37.764;2022-10-10T00:44:02;100273.81;;;9.92;80.92
44198;BME280;30157;55.512;37.764;2022-10-10T00:46:28;100214.03;;;9.55;80.97
44198;BME280;30157;55.512;37.764;2022-10-10T00:48:53;100276.41;;;9.90;81.42
44198;BME280;30157;55.512;37.764;2022-10-10T00:51:19;100220.09;;;9.58;81.32
44198;BME280;30157;55.512;37.764;2022-10-10T00:53:48;100253.03;;;9.81;81.34
44198;BME280;30157;55.512;37.764;2022-10-10T00:56:16;100266.03;;;9.86;81.45
44198;BME280;30157;55.512;37.764;2022-10-10T00:58:46;100272.13;;;9.92;81.30
44198;BME280;30157;55.512;37.764;2022-10-10T01:01:13;100266.94;;;9.91;81.44
44198;BME280;30157;55.512;37.764;2022-10-10T01:03:38;100258.25;;;9.87;81.38
44198;BME280;30157;55.512;37.764;2022-10-10T01:06:05;100252.19;;;9.85;81.16
44198;BME280;30157;55.512;37.764;2022-10-10T01:08:32;100228.78;;;9.70;81.22
44198;BME280;30157;55.512;37.764;2022-10-10T01:11:01;100279.06;;;9.94;81.22
44198;BME280;30157;55.512;37.764;2022-10-10T01:13:40;100228.75;;;9.59;81.18
44198;BME280;30157;55.512;37.764;2022-10-10T01:16:28;100283.34;;;9.87;81.58
44198;BME280;30157;55.512;37.764;2022-10-10T01:19:13;100291.97;;;9.86;81.59
44198;BME280;30157;55.512;37.764;2022-10-10T01:21:55;100228.69;;;9.51;81.40
44198;BME280;30157;55.512;37.764;2022-10-10T01:24:42;100291.91;;;9.80;81.48
44198;BME280;30157;55.512;37.764;2022-10-10T01:27:50;100239.88;;;9.43;81.72
44198;BME280;30157;55.512;37.764;2022-10-10T01:30:16;100276.28;;;9.64;81.73
44198;BME280;30157;55.512;37.764;2022-10-10T01:33:12;100297.94;;;9.79;81.91
44198;BME280;30157;55.512;37.764;2022-10-10T01:35:52;100308.31;;;9.79;81.02
44198;BME280;30157;55.512;37.764;2022-10-10T01:38:45;100308.31;;;9.77;81.21
44198;BME280;30157;55.512;37.764;2022-10-10T01:41:20;100310.91;;;9.77;80.99
44198;BME280;30157;55.512;37.764;2022-10-10T01:43:56;100297.94;;;9.71;80.88
44198;BME280;30157;55.512;37.764;2022-10-10T01:46:23;100327.31;;;9.74;80.94
44198;BME280;30157;55.512;37.764;2022-10-10T01:48:51;100309.91;;;9.55;81.06
44198;BME280;30157;55.512;37.764;2022-10-10T01:56:43;100284.78;;;9.45;80.28
44198;BME280;30157;55.512;37.764;2022-10-10T01:59:25;100342.00;;;9.74;80.13
44198;BME280;30157;55.512;37.764;2022-10-10T02:04:51;100343.69;;;9.70;80.57
44198;BME280;30157;55.512;37.764;2022-10-10T02:07:27;100333.31;;;9.64;80.34
44198;BME280;30157;55.512;37.764;2022-10-10T02:09:56;100348.03;;;9.73;80.22
44198;BME280;30157;55.512;37.764;2022-10-10T02:12:27;100343.69;;;9.70;79.99
44198;BME280;30157;55.512;37.764;2022-10-10T02:14:57;100348.03;;;9.74;80.15
44198;BME280;30157;55.512;37.764;2022-10-10T02:17:29;100335.84;;;9.61;79.86
44198;BME280;30157;55.512;37.764;2022-10-10T02:19:57;100264.72;;;9.17;79.76
44198;BME280;30157;55.512;37.764;2022-10-10T02:22:24;100317.59;;;9.46;79.81
44198;BME280;30157;55.512;37.764;2022-10-10T02:24:51;100325.38;;;9.47;79.48
44198;BME280;30157;55.512;37.764;2022-10-10T02:30:25;100372.19;;;9.67;79.06
44198;BME280;30157;55.512;37.764;2022-10-10T02:32:57;100289.69;;;9.07;78.26
44198;BME280;30157;55.512;37.764;2022-10-10T02:35:34;100361.66;;;9.46;77.64
44198;BME280;30157;55.512;37.764;2022-10-10T02:38:05;100388.56;;;9.60;77.62
44198;BME280;30157;55.512;37.764;2022-10-10T02:40:34;100368.50;;;9.40;77.89
44198;BME280;30157;55.512;37.764;2022-10-10T02:43:03;100366.75;;;9.38;77.66
44198;BME280;30157;55.512;37.764;2022-10-10T02:45:33;100392.78;;;9.50;77.62
44198;BME280;30157;55.512;37.764;2022-10-10T02:48:00;100401.38;;;9.46;78.00
44198;BME280;30157;55.512;37.764;2022-10-10T02:50:26;100406.53;;;9.43;77.74
44198;BME280;30157;55.512;37.764;2022-10-10T02:52:53;100397.00;;;9.40;77.63
44198;BME280;30157;55.512;37.764;2022-10-10T02:55:19;100411.72;;;9.43;77.44
44198;BME280;30157;55.512;37.764;2022-10-10T02:57:44;100409.13;;;9.43;77.63
44198;BME280;30157;55.512;37.764;2022-10-10T03:00:11;100362.22;;;9.15;77.39
44198;BME280;30157;55.512;37.764;2022-10-10T03:02:37;100403.03;;;9.39;77.66
44198;BME280;30157;55.512;37.764;2022-10-10T03:05:03;100392.63;;;9.32;78.07
44198;BME280;30157;55.512;37.764;2022-10-10T03:07:29;100369.94;;;9.07;78.18
44198;BME280;30157;55.512;37.764;2022-10-10T03:09:55;100373.47;;;9.14;78.50
44198;BME280;30157;55.512;37.764;2022-10-10T03:12:21;100402.06;;;9.25;78.62
44198;BME280;30157;55.512;37.764;2022-10-10T03:14:47;100406.41;;;9.29;78.83
44198;BME280;30157;55.512;37.764;2022-10-10T03:17:13;100422.00;;;9.34;78.99
44198;BME280;30157;55.512;37.764;2022-10-10T03:19:39;100409.94;;;9.34;78.86
44198;BME280;30157;55.512;37.764;2022-10-10T03:22:04;100406.38;;;9.26;79.05
44198;BME280;30157;55.512;37.764;2022-10-10T03:24:30;100420.25;;;9.33;78.90
44198;BME280;30157;55.512;37.764;2022-10-10T03:26:56;100416.72;;;9.26;79.11
44198;BME280;30157;55.512;37.764;2022-10-10T03:29:21;100373.25;;;8.94;79.38
44198;BME280;30157;55.512;37.764;2022-10-10T03:31:47;100432.22;;;9.20;79.53
44198;BME280;30157;55.512;37.764;2022-10-10T03:34:13;100420.84;;;9.07;79.47
44198;BME280;30157;55.512;37.764;2022-10-10T03:36:38;100444.22;;;9.13;79.52
44198;BME280;30157;55.512;37.764;2022-10-10T03:39:04;100442.47;;;9.11;79.85
44198;BME280;30157;55.512;37.764;2022-10-10T03:41:32;100441.56;;;9.05;79.33
44198;BME280;30157;55.512;37.764;2022-10-10T03:43:58;100448.44;;;9.03;78.66
44198;BME280;30157;55.512;37.764;2022-10-10T03:46:23;100306.75;;;8.15;78.57
44198;BME280;30157;55.512;37.764;2022-10-10T03:48:49;100449.34;;;9.07;78.04
44198;BME280;30157;55.512;37.764;2022-10-10T03:51:15;100444.94;;;8.98;77.91
44198;BME280;30157;55.512;37.764;2022-10-10T03:53:41;100457.09;;;9.07;77.84
44198;BME280;30157;55.512;37.764;2022-10-10T03:56:07;100454.38;;;8.95;77.41
44198;BME280;30157;55.512;37.764;2022-10-10T03:58:32;100463.91;;;8.99;77.44
44198;BME280;30157;55.512;37.764;2022-10-10T04:01:02;100481.19;;;8.98;77.23
44198;BME280;30157;55.512;37.764;2022-10-10T04:03:28;100482.88;;;8.96;77.07
44198;BME280;30157;55.512;37.764;2022-10-10T04:05:54;100477.69;;;8.98;77.23
44198;BME280;30157;55.512;37.764;2022-10-10T04:08:20;100481.09;;;8.92;76.85
44198;BME280;30157;55.512;37.764;2022-10-10T04:10:49;100494.06;;;8.94;76.97
44198;BME280;30157;55.512;37.764;2022-10-10T04:13:16;100487.94;;;8.88;76.69
44198;BME280;30157;55.512;37.764;2022-10-10T04:15:42;100480.97;;;8.83;76.79
44198;BME280;30157;55.512;37.764;2022-10-10T04:18:07;100486.13;;;8.80;76.90
44198;BME280;30157;55.512;37.764;2022-10-10T04:20:33;100500.00;;;8.85;77.03
44198;BME280;30157;55.512;37.764;2022-10-10T04:22:59;100506.09;;;8.90;77.00
44198;BME280;30157;55.512;37.764;2022-10-10T04:25:25;100448.63;;;8.50;76.22
44198;BME280;30157;55.512;37.764;2022-10-10T04:27:51;100517.31;;;8.89;76.45
44198;BME280;30157;55.512;37.764;2022-10-10T04:30:17;100461.63;;;8.56;75.99
44198;BME280;30157;55.512;37.764;2022-10-10T04:32:43;100461.69;;;8.59;75.85
44198;BME280;30157;55.512;37.764;2022-10-10T04:35:09;100519.06;;;8.90;75.36
44198;BME280;30157;55.512;37.764;2022-10-10T04:37:35;100500.72;;;8.76;75.49
44198;BME280;30157;55.512;37.764;2022-10-10T04:40:01;100499.03;;;8.78;74.84
44198;BME280;30157;55.512;37.764;2022-10-10T04:42:29;100512.84;;;8.80;74.13
44198;BME280;30157;55.512;37.764;2022-10-10T04:44:55;100544.16;;;8.96;74.05
44198;BME280;30157;55.512;37.764;2022-10-10T04:47:21;100531.19;;;8.94;74.48
44198;BME280;30157;55.512;37.764;2022-10-10T04:49:47;100524.25;;;8.91;74.29
44198;BME280;30157;55.512;37.764;2022-10-10T04:52:13;100535.53;;;8.97;74.62
44198;BME280;30157;55.512;37.764;2022-10-10T04:54:39;100483.38;;;8.69;74.40
44198;BME280;30157;55.512;37.764;2022-10-10T04:57:05;100534.72;;;9.01;74.54
44198;BME280;30157;55.512;37.764;2022-10-10T04:59:31;100542.63;;;9.12;74.17
44198;BME280;30157;55.512;37.764;2022-10-10T05:01:57;100509.53;;;8.87;73.98
44198;BME280;30157;55.512;37.764;2022-10-10T05:04:22;100486.97;;;8.79;73.92
44198;BME280;30157;55.512;37.764;2022-10-10T05:06:48;100552.09;;;9.11;74.02
44198;BME280;30157;55.512;37.764;2022-10-10T05:09:14;100553.84;;;9.12;74.08
44198;BME280;30157;55.512;37.764;2022-10-10T05:11:39;100522.53;;;8.94;74.21
44198;BME280;30157;55.512;37.764;2022-10-10T05:14:05;100538.16;;;9.00;74.76
44198;BME280;30157;55.512;37.764;2022-10-10T05:16:31;100564.31;;;9.21;74.38
44198;BME280;30157;55.512;37.764;2022-10-10T05:18:56;100571.28;;;9.25;74.02
44198;BME280;30157;55.512;37.764;2022-10-10T05:21:23;100547.03;;;9.19;73.55
44198;BME280;30157;55.512;37.764;2022-10-10T05:23:49;100509.53;;;8.87;72.97
44198;BME280;30157;55.512;37.764;2022-10-10T05:26:15;100550.28;;;9.04;72.75
44198;BME280;30157;55.512;37.764;2022-10-10T05:28:40;100577.19;;;9.15;73.06
44198;BME280;30157;55.512;37.764;2022-10-10T05:31:06;100566.63;;;9.00;72.79
44198;BME280;30157;55.512;37.764;2022-10-10T05:33:33;100527.47;;;8.75;72.88
44198;BME280;30157;55.512;37.764;2022-10-10T05:36:11;100562.31;;;9.00;72.78
44198;BME280;30157;55.512;37.764;2022-10-10T05:38:37;100576.22;;;9.07;72.19
44198;BME280;30157;55.512;37.764;2022-10-10T05:41:03;100582.22;;;9.06;71.70
44198;BME280;30157;55.512;37.764;2022-10-10T05:43:29;100581.38;;;9.04;71.43
44198;BME280;30157;55.512;37.764;2022-10-10T05:45:56;100567.50;;;9.00;71.51
44198;BME280;30157;55.512;37.764;2022-10-10T05:48:22;100585.72;;;9.06;71.57
44198;BME280;30157;55.512;37.764;2022-10-10T05:50:50;100548.34;;;8.86;72.25
44198;BME280;30157;55.512;37.764;2022-10-10T05:53:17;100586.59;;;9.08;72.07
44198;BME280;30157;55.512;37.764;2022-10-10T05:55:43;100576.22;;;9.07;71.95
44198;BME280;30157;55.512;37.764;2022-10-10T05:58:10;100591.66;;;9.70;71.61
44198;BME280;30157;55.512;37.764;2022-10-10T06:00:39;100583.66;;;11.99;66.44
44198;BME280;30157;55.512;37.764;2022-10-10T06:03:05;100588.41;;;14.02;60.55
44198;BME280;30157;55.512;37.764;2022-10-10T06:05:31;100587.66;;;14.90;56.75
44198;BME280;30157;55.512;37.764;2022-10-10T06:07:57;100577.06;;;15.72;54.26
44198;BME280;30157;55.512;37.764;2022-10-10T06:10:22;100571.66;;;16.44;52.77
44198;BME280;30157;55.512;37.764;2022-10-10T06:12:48;100588.75;;;17.15;49.53
44198;BME280;30157;55.512;37.764;2022-10-10T06:15:14;100588.91;;;17.50;48.02
44198;BME280;30157;55.512;37.764;2022-10-10T06:17:40;100590.09;;;17.75;47.15
44198;BME280;30157;55.512;37.764;2022-10-10T06:20:06;100474.03;;;17.23;46.79
44198;BME280;30157;55.512;37.764;2022-10-10T06:22:32;100563.41;;;17.95;45.62
44198;BME280;30157;55.512;37.764;2022-10-10T06:24:57;100571.31;;;18.66;45.14
44198;BME280;30157;55.512;37.764;2022-10-10T06:27:23;100596.53;;;18.39;44.86
44198;BME280;30157;55.512;37.764;2022-10-10T06:29:49;100607.78;;;19.13;44.63
44198;BME280;30157;55.512;37.764;2022-10-10T06:32:14;100554.31;;;18.79;44.03
44198;BME280;30157;55.512;37.764;2022-10-10T06:34:40;100600.69;;;18.82;43.91
44198;BME280;30157;55.512;37.764;2022-10-10T06:37:06;100609.03;;;18.98;42.58
44198;BME280;30157;55.512;37.764;2022-10-10T06:39:33;100594.03;;;17.56;44.60
44198;BME280;30157;55.512;37.764;2022-10-10T06:41:58;100559.25;;;15.99;47.61
44198;BME280;30157;55.512;37.764;2022-10-10T06:44:24;100618.00;;;16.40;46.73
44198;BME280;30157;55.512;37.764;2022-10-10T06:46:50;100605.38;;;17.14;45.31
44198;BME280;30157;55.512;37.764;2022-10-10T06:49:16;100622.94;;;17.54;45.00
44198;BME280;30157;55.512;37.764;2022-10-10T06:51:41;100596.56;;;18.00;43.73
44198;BME280;30157;55.512;37.764;2022-10-10T06:54:09;100603.50;;;18.40;42.63
44198;BME280;30157;55.512;37.764;2022-10-10T06:56:38;100551.34;;;18.24;42.37
44198;BME280;30157;55.512;37.764;2022-10-10T06:59:04;100609.69;;;19.08;41.46
44198;BME280;30157;55.512;37.764;2022-10-10T07:01:30;100614.88;;;19.41;40.19
44198;BME280;30157;55.512;37.764;2022-10-10T07:03:56;100580.84;;;19.64;39.59
44198;BME280;30157;55.512;37.764;2022-10-10T07:06:22;100611.25;;;20.05;39.24
44198;BME280;30157;55.512;37.764;2022-10-10T07:08:47;100624.50;;;20.30;38.60
44198;BME280;30157;55.512;37.764;2022-10-10T07:11:13;100626.72;;;20.71;38.06
44198;BME280;30157;55.512;37.764;2022-10-10T07:13:39;100622.97;;;21.27;37.67
44198;BME280;30157;55.512;37.764;2022-10-10T07:16:05;100626.88;;;21.40;36.44
44198;BME280;30157;55.512;37.764;2022-10-10T07:18:32;100571.56;;;21.37;36.30
44198;BME280;30157;55.512;37.764;2022-10-10T07:20:59;100621.03;;;21.79;35.83
44198;BME280;30157;55.512;37.764;2022-10-10T07:23:27;100616.34;;;21.64;35.77
44198;BME280;30157;55.512;37.764;2022-10-10T07:26:01;100590.50;;;21.72;35.26
44198;BME280;30157;55.512;37.764;2022-10-10T07:28:28;100624.84;;;21.72;34.93
44198;BME280;30157;55.512;37.764;2022-10-10T07:31:02;100599.50;;;21.43;35.05
44198;BME280;30157;55.512;37.764;2022-10-10T07:33:34;100627.34;;;21.75;34.84
44198;BME280;30157;55.512;37.764;2022-10-10T07:36:00;100589.25;;;21.59;34.58
44198;BME280;30157;55.512;37.764;2022-10-10T07:38:26;100589.50;;;21.51;33.85
44198;BME280;30157;55.512;37.764;2022-10-10T07:40:52;100619.84;;;21.64;34.73
44198;BME280;30157;55.512;37.764;2022-10-10T07:43:18;100628.94;;;22.03;34.19
44198;BME280;30157;55.512;37.764;2022-10-10T07:45:44;100624.19;;;22.11;33.89
44198;BME280;30157;55.512;37.764;2022-10-10T07:48:09;100619.91;;;21.87;33.07
44198;BME280;30157;55.512;37.764;2022-10-10T07:50:39;100625.66;;;21.74;33.32
44198;BME280;30157;55.512;37.764;2022-10-10T07:53:05;100629.25;;;21.48;32.82
44198;BME280;30157;55.512;37.764;2022-10-10T07:55:32;100621.28;;;21.73;33.16
44198;BME280;30157;55.512;37.764;2022-10-10T07:57:58;100632.41;;;22.04;32.20
44198;BME280;30157;55.512;37.764;2022-10-10T08:00:27;100628.97;;;21.79;32.58
44198;BME280;30157;55.512;37.764;2022-10-10T08:02:53;100631.25;;;21.89;32.43
44198;BME280;30157;55.512;37.764;2022-10-10T08:05:19;100625.56;;;22.22;31.47
44198;BME280;30157;55.512;37.764;2022-10-10T08:07:44;100610.22;;;21.63;32.48
44198;BME280;30157;55.512;37.764;2022-10-10T08:10:10;100628.66;;;21.87;32.58
44198;BME280;30157;55.512;37.764;2022-10-10T08:12:36;100606.94;;;22.47;31.87
44198;BME280;30157;55.512;37.764;2022-10-10T08:15:04;100585.97;;;22.42;31.03
44198;BME280;30157;55.512;37.764;2022-10-10T08:17:30;100631.22;;;22.57;30.67
44198;BME280;30157;55.512;37.764;2022-10-10T08:19:56;100580.00;;;22.15;30.74
44198;BME280;30157;55.512;37.764;2022-10-10T08:22:21;100636.50;;;22.12;31.13
44198;BME280;30157;55.512;37.764;2022-10-10T08:24:47;100629.38;;;22.37;31.11
44198;BME280;30157;55.512;37.764;2022-10-10T08:27:12;100585.56;;;22.52;30.37
44198;BME280;30157;55.512;37.764;2022-10-10T08:29:40;100616.84;;;22.42;31.05
44198;BME280;30157;55.512;37.764;2022-10-10T08:32:05;100623.09;;;22.82;30.46
44198;BME280;30157;55.512;37.764;2022-10-10T08:34:31;100629.31;;;22.38;31.06
44198;BME280;30157;55.512;37.764;2022-10-10T08:36:57;100598.88;;;22.06;31.08
44198;BME280;30157;55.512;37.764;2022-10-10T08:39:23;100640.97;;;21.15;32.48
44198;BME280;30157;55.512;37.764;2022-10-10T08:41:51;100641.53;;;19.91;34.53
44198;BME280;30157;55.512;37.764;2022-10-10T08:47:13;100647.59;;;18.64;36.87
44198;BME280;30157;55.512;37.764;2022-10-10T08:49:44;100631.28;;;17.29;37.81
44198;BME280;30157;55.512;37.764;2022-10-10T08:52:34;100652.06;;;17.84;37.50
44198;BME280;30157;55.512;37.764;2022-10-10T08:55:05;100650.69;;;17.64;37.68
44198;BME280;30157;55.512;37.764;2022-10-10T08:57:46;100630.50;;;17.24;37.56
44198;BME280;30157;55.512;37.764;2022-10-10T09:00:22;100639.59;;;17.94;35.73
44198;BME280;30157;55.512;37.764;2022-10-10T09:02:54;100615.38;;;17.79;35.87
44198;BME280;30157;55.512;37.764;2022-10-10T09:14:03;100644.88;;;19.35;34.01
44198;BME280;30157;55.512;37.764;2022-10-10T09:16:55;100644.03;;;19.33;34.42
44198;BME280;30157;55.512;37.764;2022-10-10T09:22:04;100621.66;;;19.18;36.02
44198;BME280;30157;55.512;37.764;2022-10-10T09:24:47;100654.09;;;19.50;35.49
44198;BME280;30157;55.512;37.764;2022-10-10T09:27:22;100637.25;;;19.26;34.99
44198;BME280;30157;55.512;37.764;2022-10-10T09:32:47;100658.13;;;18.63;34.76
44198;BME280;30157;55.512;37.764;2022-10-10T09:35:22;100639.50;;;18.38;33.97
44198;BME280;30157;55.512;37.764;2022-10-10T09:37:56;100667.28;;;18.09;32.75
44198;BME280;30157;55.512;37.764;2022-10-10T09:40:29;100659.81;;;17.89;33.79
44198;BME280;30157;55.512;37.764;2022-10-10T09:42:56;100654.84;;;17.76;34.95
44198;BME280;30157;55.512;37.764;2022-10-10T09:45:37;100618.06;;;17.76;35.28
44198;BME280;30157;55.512;37.764;2022-10-10T09:48:03;100658.31;;;17.77;35.45
44198;BME280;30157;55.512;37.764;2022-10-10T09:50:29;100659.38;;;17.68;35.63
44198;BME280;30157;55.512;37.764;2022-10-10T09:52:55;100656.84;;;17.65;35.30
44198;BME280;30157;55.512;37.764;2022-10-10T09:55:37;100667.50;;;17.56;35.80
44198;BME280;30157;55.512;37.764;2022-10-10T09:58:14;100652.47;;;17.19;35.73
44198;BME280;30157;55.512;37.764;2022-10-10T10:00:42;100615.38;;;16.92;36.01
44198;BME280;30157;55.512;37.764;2022-10-10T10:03:16;100656.94;;;17.15;36.21
44198;BME280;30157;55.512;37.764;2022-10-10T10:06:07;100546.66;;;16.24;36.50
44198;BME280;30157;55.512;37.764;2022-10-10T10:08:41;100665.44;;;16.76;37.03
44198;BME280;30157;55.512;37.764;2022-10-10T10:11:29;100653.16;;;16.78;37.01
44198;BME280;30157;55.512;37.764;2022-10-10T10:14:18;100663.31;;;16.45;36.19
44198;BME280;30157;55.512;37.764;2022-10-10T10:16:46;100650.63;;;16.18;36.73
44198;BME280;30157;55.512;37.764;2022-10-10T10:19:33;100645.16;;;16.35;36.73
44198;BME280;30157;55.512;37.764;2022-10-10T10:22:00;100637.31;;;16.33;36.24
44198;BME280;30157;55.512;37.764;2022-10-10T10:24:34;100652.38;;;16.19;36.74
44198;BME280;30157;55.512;37.764;2022-10-10T10:27:16;100664.28;;;16.38;37.01
44198;BME280;30157;55.512;37.764;2022-10-10T10:29:51;100658.44;;;16.21;37.68
44198;BME280;30157;55.512;37.764;2022-10-10T10:32:40;100677.63;;;16.23;36.74
44198;BME280;30157;55.512;37.764;2022-10-10T10:35:28;100638.88;;;15.84;36.68
44198;BME280;30157;55.512;37.764;2022-10-10T10:38:15;100655.97;;;16.11;37.08
44198;BME280;30157;55.512;37.764;2022-10-10T10:48:38;100570.31;;;15.59;37.60
44198;BME280;30157;55.512;37.764;2022-10-10T10:59:27;100658.69;;;16.05;38.17
44198;BME280;30157;55.512;37.764;2022-10-10T11:04:54;100649.91;;;16.08;38.22
44198;BME280;30157;55.512;37.764;2022-10-10T11:07:25;100656.97;;;16.03;38.44
44198;BME280;30157;55.512;37.764;2022-10-10T11:10:13;100653.50;;;16.02;38.29
44198;BME280;30157;55.512;37.764;2022-10-10T11:15:54;100627.56;;;15.84;36.34
44198;BME280;30157;55.512;37.764;2022-10-10T11:21:19;100654.63;;;15.79;36.98
44198;BME280;30157;55.512;37.764;2022-10-10T11:23:53;100558.00;;;14.94;37.06
44198;BME280;30157;55.512;37.764;2022-10-10T11:26:34;100655.97;;;15.43;37.67
44198;BME280;30157;55.512;37.764;2022-10-10T11:29:05;100558.19;;;14.77;37.63
44198;BME280;30157;55.512;37.764;2022-10-10T11:32:14;100644.59;;;15.42;38.27
44198;BME280;30157;55.512;37.764;2022-10-10T11:35:16;100644.41;;;15.59;37.60
44198;BME280;30157;55.512;37.764;2022-10-10T11:37:49;100622.72;;;15.48;37.49
44198;BME280;30157;55.512;37.764;2022-10-10T11:41:12;100646.78;;;15.81;38.32
44198;BME280;30157;55.512;37.764;2022-10-10T11:43:55;100657.19;;;15.87;37.04
44198;BME280;30157;55.512;37.764;2022-10-10T11:46:25;100652.06;;;15.75;37.01
44198;BME280;30157;55.512;37.764;2022-10-10T11:56:57;100629.16;;;15.21;36.49
44198;BME280;30157;55.512;37.764;2022-10-10T11:59:35;100642.13;;;15.30;36.66
44198;BME280;30157;55.512;37.764;2022-10-10T12:02:20;100650.59;;;15.51;37.83
44198;BME280;30157;55.512;37.764;2022-10-10T12:04:47;100653.13;;;15.58;39.08
44198;BME280;30157;55.512;37.764;2022-10-10T12:07:24;100655.59;;;15.71;39.48
44198;BME280;30157;55.512;37.764;2022-10-10T12:10:04;100661.81;;;15.63;40.09
44198;BME280;30157;55.512;37.764;2022-10-10T12:12:39;100645.47;;;15.44;40.91
44198;BME280;30157;55.512;37.764;2022-10-10T12:15:26;100649.97;;;15.30;41.44
44198;BME280;30157;55.512;37.764;2022-10-10T12:17:52;100597.00;;;15.14;41.30
44198;BME280;30157;55.512;37.764;2022-10-10T12:22:44;100664.34;;;15.71;41.18
44198;BME280;30157;55.512;37.764;2022-10-10T12:25:36;100657.44;;;15.62;40.76
44198;BME280;30157;55.512;37.764;2022-10-10T12:28:29;100654.91;;;15.55;41.06
44198;BME280;30157;55.512;37.764;2022-10-10T12:50:40;100667.38;;;16.09;40.32
44198;BME280;30157;55.512;37.764;2022-10-10T12:53:04;100673.13;;;16.31;40.48
44198;BME280;30157;55.512;37.764;2022-10-10T12:55:41;100677.22;;;16.51;39.84
44198;BME280;30157;55.512;37.764;2022-10-10T12:58:16;100657.28;;;16.40;39.83
44198;BME280;30157;55.512;37.764;2022-10-10T13:00:47;100658.25;;;16.35;39.47
44198;BME280;30157;55.512;37.764;2022-10-10T13:03:21;100676.84;;;16.74;39.12
44198;BME280;30157;55.512;37.764;2022-10-10T13:05:51;100670.06;;;17.13;38.04
44198;BME280;30157;55.512;37.764;2022-10-10T13:08:21;100661.16;;;17.22;37.64
44198;BME280;30157;55.512;37.764;2022-10-10T13:11:07;100676.56;;;17.39;37.74
44198;BME280;30157;55.512;37.764;2022-10-10T13:13:35;100672.81;;;17.53;37.09
44198;BME280;30157;55.512;37.764;2022-10-10T13:16:16;100670.03;;;17.60;36.75
44198;BME280;30157;55.512;37.764;2022-10-10T13:18:51;100657.06;;;17.53;36.75
44198;BME280;30157;55.512;37.764;2022-10-10T13:21:28;100679.72;;;18.01;35.24
44198;BME280;30157;55.512;37.764;2022-10-10T13:23:58;100677.53;;;18.20;34.89
44198;BME280;30157;55.512;37.764;2022-10-10T13:26:43;100639.81;;;17.83;34.38
44198;BME280;30157;55.512;37.764;2022-10-10T13:29:29;100682.97;;;18.50;34.46
44198;BME280;30157;55.512;37.764;2022-10-10T13:32:07;100601.66;;;18.07;34.04
44198;BME280;30157;55.512;37.764;2022-10-10T13:34:37;100678.81;;;18.03;34.55
44198;BME280;30157;55.512;37.764;2022-10-10T13:37:05;100677.88;;;17.62;35.43
44198;BME280;30157;55.512;37.764;2022-10-10T13:39:35;100673.75;;;17.03;36.38
44198;BME280;30157;55.512;37.764;2022-10-10T13:42:02;100693.06;;;16.99;36.99
44198;BME280;30157;55.512;37.764;2022-10-10T13:44:48;100688.81;;;16.90;36.84
44198;BME280;30157;55.512;37.764;2022-10-10T13:47:51;100695.25;;;16.11;38.16
44198;BME280;30157;55.512;37.764;2022-10-10T13:52:46;100696.56;;;15.76;38.48
44198;BME280;30157;55.512;37.764;2022-10-10T13:55:24;100689.59;;;15.74;38.63
44198;BME280;30157;55.512;37.764;2022-10-10T13:57:52;100693.38;;;16.21;37.86
44198;BME280;30157;55.512;37.764;2022-10-10T14:00:20;100661.88;;;15.57;38.71
44198;BME280;30157;55.512;37.764;2022-10-10T14:02:47;100707.31;;;14.43;41.44
44198;BME280;30157;55.512;37.764;2022-10-10T14:05:21;100647.00;;;12.89;44.32
44198;BME280;30157;55.512;37.764;2022-10-10T14:07:51;100699.97;;;12.67;45.72
44198;BME280;30157;55.512;37.764;2022-10-10T14:10:21;100699.97;;;12.40;46.68
44198;BME280;30157;55.512;37.764;2022-10-10T14:12:53;100700.78;;;12.18;47.08
44198;BME280;30157;55.512;37.764;2022-10-10T14:18:00;100703.25;;;11.84;47.75
44198;BME280;30157;55.512;37.764;2022-10-10T14:20:28;100665.81;;;11.52;48.32
44198;BME280;30157;55.512;37.764;2022-10-10T14:22:54;100698.78;;;11.58;48.74
44198;BME280;30157;55.512;37.764;2022-10-10T14:25:20;100664.84;;;11.30;49.36
44198;BME280;30157;55.512;37.764;2022-10-10T14:27:45;100709.16;;;11.50;49.79
44198;BME280;30157;55.512;37.764;2022-10-10T14:30:14;100667.31;;;11.13;50.33